Time;durP1;ratioP1;P1;durP2;ratioP2;P2;SDS_P1;SDS_P2;PMS_P1;PMS_P2;Temp;Humidity;BMP_temperature;BMP_pressure;BME280_temperature;BME280_humidity;BME280_pressure;Samples;Min_cycle;Max_cycle;Signal;HPM_P1;HPM_P2
2022/06/25 00:02:22;;;;;;;;;0.00;0.00;;;;;22.58;49.92;100632.31;5074062;27;45528;-78
2022/06/25 00:07:32;;;;;;;;;0.33;0.33;;;;;22.60;50.11;100643.91;5072489;28;45638;-78
2022/06/25 00:09:57;;;;;;;;;0.00;0.00;;;;;22.59;50.68;100628.59;5072928;28;45565;-78
2022/06/25 00:12:31;;;;;;;;;0.67;0.67;;;;;22.54;50.32;100629.03;5075139;28;45413;-78
2022/06/25 00:14:57;;;;;;;;;1.00;1.00;;;;;22.62;50.37;100648.19;5072776;28;45492;-78
2022/06/25 00:17:22;;;;;;;;;0.67;0.67;;;;;22.45;50.59;100622.66;5076054;28;45590;-78
2022/06/25 00:19:48;;;;;;;;;1.00;1.00;;;;;22.63;50.53;100646.31;5073541;28;46173;-79
2022/06/25 00:22:13;;;;;;;;;0.00;0.00;;;;;22.49;50.78;100615.88;5054604;28;45567;-79
2022/06/25 00:24:39;;;;;;;;;1.00;0.00;;;;;22.67;50.62;100634.16;5071852;28;45510;-80
2022/06/25 00:27:05;;;;;;;;;0.00;0.00;;;;;22.69;50.58;100634.88;5072797;28;45556;-80
2022/06/25 00:29:30;;;;;;;;;1.00;1.00;;;;;22.64;50.67;100646.19;5073915;28;46397;-79
2022/06/25 00:31:55;;;;;;;;;1.00;1.00;;;;;22.61;50.46;100640.16;5075309;28;45366;-78
2022/06/25 00:34:20;;;;;;;;;1.33;1.00;;;;;22.61;50.86;100645.59;5072277;28;50169;-79
2022/06/25 00:36:46;;;;;;;;;0.33;0.33;;;;;22.48;50.84;100616.06;5072335;28;45400;-79
2022/06/25 00:39:12;;;;;;;;;2.00;1.00;;;;;22.63;50.47;100649.03;5055515;28;47101;-80
2022/06/25 00:41:37;;;;;;;;;0.00;0.00;;;;;22.47;51.01;100614.31;5070463;28;52489;-79
2022/06/25 00:44:07;;;;;;;;;0.00;0.00;;;;;22.62;50.96;100637.31;5073515;28;45336;-79
2022/06/25 00:46:32;;;;;;;;;1.00;1.00;;;;;22.37;50.95;100600.78;5074373;28;45392;-80
2022/06/25 00:48:58;;;;;;;;;0.00;0.00;;;;;22.63;50.59;100640.88;5073745;28;45457;-79
2022/06/25 00:51:27;;;;;;;;;1.00;1.00;;;;;22.60;50.97;100638.47;5072013;27;55733;-79
2022/06/25 00:53:55;;;;;;;;;0.00;0.00;;;;;;;;5074274;28;45529;-79
2022/06/25 00:56:21;;;;;;;;;0.33;0.33;;;;;22.62;50.68;100655.47;5072866;28;45582;-78
2022/06/25 00:58:52;;;;;;;;;0.67;0.67;;;;;22.53;51.29;100639.03;5073316;28;46184;-80
2022/06/25 01:01:19;;;;;;;;;0.00;0.00;;;;;22.59;51.34;100639.44;5075983;28;45383;-80
2022/06/25 01:03:44;;;;;;;;;0.00;0.00;;;;;22.64;51.18;100656.16;5070919;28;45605;-78
2022/06/25 01:06:10;;;;;;;;;1.67;0.33;;;;;22.68;51.01;100657.59;5066091;28;45425;-79
2022/06/25 01:08:36;;;;;;;;;0.00;0.00;;;;;22.68;52.29;100655.72;5065932;28;47255;-79
2022/06/25 01:11:02;;;;;;;;;1.00;1.00;;;;;22.66;52.56;100657.72;5068095;28;45375;-78
2022/06/25 01:13:29;;;;;;;;;0.00;0.00;;;;;22.67;51.90;100662.16;5073570;28;45388;-79
2022/06/25 01:15:54;;;;;;;;;0.00;0.00;;;;;22.39;52.10;100619.66;5070806;28;45523;-80
2022/06/25 01:18:19;;;;;;;;;1.00;1.00;;;;;22.52;52.06;100645.50;5074567;28;46045;-78
2022/06/25 01:20:45;;;;;;;;;1.00;1.00;;;;;22.48;52.06;100645.94;5069377;28;45537;-79
2022/06/25 01:23:11;;;;;;;;;1.00;1.00;;;;;22.54;52.20;100657.03;5070645;28;45445;-80
2022/06/25 01:25:38;;;;;;;;;1.00;1.00;;;;;22.32;51.59;100624.81;5064966;28;45642;-79
2022/06/25 01:28:04;;;;;;;;;1.00;1.00;;;;;22.47;51.71;100653.19;5069875;28;46319;-78
2022/06/25 01:30:29;;;;;;;;;1.00;1.00;;;;;22.50;52.04;100657.47;5072308;28;45470;-79
2022/06/25 01:32:55;;;;;;;;;1.00;1.00;;;;;22.48;52.35;100652.22;5074625;28;45377;-79
2022/06/25 01:35:21;;;;;;;;;2.67;1.33;;;;;22.48;52.30;100649.50;5069874;28;45502;-79
2022/06/25 01:37:46;;;;;;;;;1.33;1.33;;;;;22.36;51.88;100645.25;5072235;28;47248;-78
2022/06/25 01:40:11;;;;;;;;;1.00;1.00;;;;;22.25;52.00;100613.66;5074338;28;45538;-79
2022/06/25 01:45:21;;;;;;;;;1.00;1.00;;;;;22.36;52.15;100639.81;5067922;28;45420;-80
2022/06/25 01:47:46;;;;;;;;;1.00;1.00;;;;;22.26;51.66;100619.94;5069539;28;46055;-79
2022/06/25 01:50:12;;;;;;;;;3.00;1.00;;;;;22.38;51.91;100645.94;5072471;28;45529;-79
2022/06/25 01:52:38;;;;;;;;;1.00;1.00;;;;;22.44;52.55;100656.22;5070528;28;45712;-79
2022/06/25 01:55:04;;;;;;;;;3.00;1.00;;;;;22.37;53.01;100643.38;5072294;28;45549;-79
2022/06/25 01:57:29;;;;;;;;;1.00;1.00;;;;;21.97;53.35;100588.25;5071116;28;46127;-79
2022/06/25 01:59:55;;;;;;;;;0.67;0.67;;;;;22.31;53.18;100647.53;5071687;28;45750;-79
2022/06/25 02:02:20;;;;;;;;;0.00;0.00;;;;;22.40;53.23;100667.53;5073040;28;46770;-79
2022/06/25 02:04:46;;;;;;;;;1.00;1.00;;;;;22.35;52.93;100665.25;5073243;28;45493;-80
2022/06/25 02:07:11;;;;;;;;;0.33;0.33;;;;;22.30;53.80;100662.97;5073627;28;46382;-80
2022/06/25 02:09:37;;;;;;;;;2.33;1.00;;;;;22.10;53.35;100639.50;5068724;28;45439;-79
2022/06/25 02:12:07;;;;;;;;;1.00;1.00;;;;;22.11;53.40;100650.22;5074503;28;45442;-79
2022/06/25 02:14:32;;;;;;;;;1.00;1.00;;;;;22.14;53.91;100649.09;5073154;28;45557;-79
2022/06/25 02:16:57;;;;;;;;;3.00;1.00;;;;;22.24;53.87;100670.81;5072827;28;56645;-79
2022/06/25 02:19:23;;;;;;;;;1.00;1.00;;;;;22.17;54.13;100659.66;5074403;28;45897;-80
2022/06/25 02:21:48;;;;;;;;;0.33;0.33;;;;;22.23;53.66;100666.41;5072239;28;45462;-80
2022/06/25 02:24:13;;;;;;;;;1.00;1.00;;;;;22.20;54.11;100681.09;5072766;28;45486;-79
2022/06/25 02:26:39;;;;;;;;;1.00;0.67;;;;;22.16;54.82;100676.94;5065627;28;46017;-79
2022/06/25 02:29:04;;;;;;;;;3.00;0.00;;;;;21.98;55.32;100657.81;5071550;27;45607;-78
2022/06/25 02:31:29;;;;;;;;;2.00;2.00;;;;;22.03;55.46;100649.22;5073477;27;45552;-79
2022/06/25 02:33:55;;;;;;;;;2.33;2.33;;;;;22.05;55.87;100656.22;5072963;28;45483;-79
2022/06/25 02:36:20;;;;;;;;;0.67;0.67;;;;;22.02;56.39;100652.97;5072505;27;45513;-80
2022/06/25 02:38:46;;;;;;;;;1.00;1.00;;;;;22.02;56.43;100664.66;5066467;27;45544;-79
2022/06/25 02:41:11;;;;;;;;;1.00;1.00;;;;;22.02;56.56;100666.53;5071403;27;45454;-80
2022/06/25 02:43:37;;;;;;;;;1.00;1.00;;;;;22.03;58.65;100676.38;5075533;28;45678;-80
2022/06/25 02:46:02;;;;;;;;;2.00;2.00;;;;;22.00;58.74;100673.97;5073405;28;45880;-80
2022/06/25 02:48:28;;;;;;;;;1.00;1.00;;;;;22.00;58.61;100672.09;5053871;28;45559;-80
2022/06/25 02:50:53;;;;;;;;;2.00;1.00;;;;;21.97;58.51;100669.66;5072624;27;46791;-79
2022/06/25 02:53:18;;;;;;;;;1.00;1.00;;;;;21.96;58.73;100667.09;5069685;28;45292;-80
2022/06/25 03:01:11;;;;;;;;;1.00;1.00;;;;;21.95;57.82;100676.25;5074698;28;45748;-80
2022/06/25 03:03:37;;;;;;;;;2.00;1.00;;;;;21.73;58.41;100634.81;5074773;28;45524;-79
2022/06/25 03:06:02;;;;;;;;;1.00;1.00;;;;;21.88;58.28;100668.66;5075186;27;46020;-79
2022/06/25 03:08:28;;;;;;;;;1.67;1.00;;;;;21.86;58.27;100673.38;5072625;28;45419;-80
2022/06/25 03:10:53;;;;;;;;;0.33;0.33;;;;;21.86;57.80;100670.66;5074416;28;45221;-80
2022/06/25 03:13:19;;;;;;;;;1.67;1.67;;;;;21.84;57.99;100677.22;5073992;28;45537;-80
2022/06/25 03:15:44;;;;;;;;;0.67;0.67;;;;;21.75;57.83;100662.69;5072223;28;46032;-79
2022/06/25 03:18:09;;;;;;;;;1.67;0.00;;;;;21.70;58.03;100659.50;5074980;28;46304;-80
2022/06/25 03:20:35;;;;;;;;;0.00;0.00;;;;;21.75;57.68;100668.09;5073205;28;45940;-79
2022/06/25 03:23:00;;;;;;;;;0.00;0.00;;;;;21.78;57.64;100677.81;5075698;28;45486;-79
2022/06/25 03:25:26;;;;;;;;;0.00;0.00;;;;;21.75;57.72;100662.69;5076473;27;46925;-80
2022/06/25 03:27:51;;;;;;;;;0.00;0.00;;;;;21.74;57.63;100665.53;5075308;28;45440;-80
2022/06/25 03:30:17;;;;;;;;;0.00;0.00;;;;;21.77;57.37;100668.78;5074598;27;45790;-81
2022/06/25 03:32:42;;;;;;;;;0.00;0.00;;;;;21.59;57.14;100637.97;5076934;27;45514;-80
2022/06/25 03:35:08;;;;;;;;;0.00;0.00;;;;;21.68;57.21;100650.66;5073746;28;45574;-80
2022/06/25 03:37:33;;;;;;;;;0.00;0.00;;;;;21.58;56.95;100638.94;5071849;28;45530;-79
2022/06/25 03:39:59;;;;;;;;;1.00;0.00;;;;;21.81;56.40;100674.81;5076281;28;45953;-80
2022/06/25 03:42:24;;;;;;;;;0.00;0.00;;;;;21.82;56.74;100684.66;5072524;28;45600;-81
2022/06/25 03:44:50;;;;;;;;;0.00;0.00;;;;;21.85;56.63;100687.94;5073751;28;48415;-81
2022/06/25 03:47:15;;;;;;;;;0.00;0.00;;;;;21.55;56.16;100639.22;5071828;28;46427;-79
2022/06/25 03:49:40;;;;;;;;;0.00;0.00;;;;;21.56;56.26;100641.78;5075195;28;45787;-79
2022/06/25 03:52:06;;;;;;;;;0.00;0.00;;;;;21.80;56.13;100692.94;5075235;28;45596;-80
2022/06/25 03:54:31;;;;;;;;;1.00;1.00;;;;;21.82;56.17;100690.06;5075657;28;46051;-79
2022/06/25 03:56:56;;;;;;;;;0.00;0.00;;;;;21.88;56.02;100689.53;5075436;28;45585;-80
2022/06/25 03:59:22;;;;;;;;;0.00;0.00;;;;;21.77;55.88;100676.94;5073735;28;45378;-80
2022/06/25 04:01:47;;;;;;;;;0.00;0.00;;;;;21.76;56.32;100667.09;5070768;27;45445;-80
2022/06/25 04:04:13;;;;;;;;;0.00;0.00;;;;;21.83;55.75;100675.53;5074232;28;45889;-80
2022/06/25 04:06:38;;;;;;;;;0.00;0.00;;;;;21.62;56.16;100643.09;5074213;28;45461;-80
2022/06/25 04:09:04;;;;;;;;;0.00;0.00;;;;;21.86;55.65;100691.50;5073100;28;47799;-80
2022/06/25 04:11:30;;;;;;;;;0.00;0.00;;;;;21.69;56.23;100672.22;5062317;28;45584;-79
2022/06/25 04:13:55;;;;;;;;;0.00;0.00;;;;;21.87;56.24;100699.53;5075887;28;46613;-79
2022/06/25 04:16:21;;;;;;;;;0.00;0.00;;;;;21.83;56.09;100695.38;5073563;28;45556;-80
2022/06/25 04:18:46;;;;;;;;;0.00;0.00;;;;;21.84;55.88;100685.38;5074264;28;45762;-80
2022/06/25 04:21:11;;;;;;;;;0.00;0.00;;;;;21.95;55.79;100700.66;5072563;28;45509;-80
2022/06/25 04:23:37;;;;;;;;;0.00;0.00;;;;;21.92;56.08;100707.25;5074656;28;46296;-80
2022/06/25 04:26:02;;;;;;;;;0.00;0.00;;;;;21.92;55.81;100701.81;5073210;28;52099;-80
2022/06/25 04:31:12;;;;;;;;;0.00;0.00;;;;;21.91;56.23;100713.66;5073774;28;45585;-81
2022/06/25 04:33:37;;;;;;;;;0.00;0.00;;;;;21.92;56.23;100709.97;5073673;27;46694;-80
2022/06/25 04:36:03;;;;;;;;;0.00;0.00;;;;;21.87;56.31;100706.81;5073691;28;46730;-81
2022/06/25 04:38:28;;;;;;;;;0.00;0.00;;;;;21.91;56.43;100725.38;5074252;28;45485;-81
2022/06/25 04:40:53;;;;;;;;;1.00;0.00;;;;;21.90;56.32;100715.50;5072826;28;45533;-83
2022/06/25 04:43:19;;;;;;;;;0.00;0.00;;;;;21.87;55.80;100725.81;5075017;28;46414;-82
2022/06/25 04:45:44;;;;;;;;;0.00;0.00;;;;;21.85;56.04;100731.38;5070595;28;45455;-83
2022/06/25 04:48:09;;;;;;;;;0.00;0.00;;;;;21.77;56.36;100723.06;5073595;28;45484;-84
2022/06/25 04:50:36;;;;;;;;;0.00;0.00;;;;;21.81;56.31;100734.50;5074325;28;45304;-83
2022/06/25 04:53:01;;;;;;;;;0.00;0.00;;;;;21.80;56.44;100730.09;5072594;28;45690;-86
2022/06/25 04:55:26;;;;;;;;;0.00;0.00;;;;;21.61;55.79;100701.91;5072807;28;46713;-82
2022/06/25 04:57:52;;;;;;;;;1.67;0.00;;;;;21.44;56.16;100668.16;5074717;28;45475;-84
2022/06/25 05:00:17;;;;;;;;;0.00;0.00;;;;;21.63;56.24;100701.75;5073612;28;45496;-84
2022/06/25 05:02:42;;;;;;;;;0.00;0.00;;;;;21.70;56.23;100714.66;5073388;28;45802;-85
2022/06/25 05:05:40;;;;;;;;;0.00;0.00;;;;;21.60;56.35;100692.03;5069863;28;45737;-84
2022/06/25 05:11:27;;;;;;;;;0.75;0.00;;;;;21.71;55.72;100719.06;5068670;28;45399;-83
2022/06/25 05:13:56;;;;;;;;;0.00;0.00;;;;;21.89;55.82;100757.22;5075093;28;46100;-84
2022/06/25 05:16:21;;;;;;;;;0.00;0.00;;;;;21.56;55.42;100703.31;5073598;28;45544;-84
2022/06/25 05:18:55;;;;;;;;;0.00;0.00;;;;;21.46;55.15;100679.75;5070835;28;45666;-82
2022/06/25 05:21:20;;;;;;;;;0.00;0.00;;;;;21.29;55.59;100647.84;5074479;28;45607;-83
2022/06/25 05:24:01;;;;;;;;;0.33;0.33;;;;;21.03;54.88;100612.25;5072460;28;45733;-82
2022/06/25 05:26:27;;;;;;;;;1.00;1.00;;;;;22.05;54.52;100781.09;5070751;28;45461;-86
2022/06/25 05:38:56;;;;;;;;;1.00;1.00;;;;;22.15;53.10;100775.69;5615968;22;45434;-85
2022/06/25 06:09:55;;;;;;;;;0.00;0.00;;;;;22.40;50.66;100776.16;4953684;28;45555;-84
2022/06/25 06:14:47;;;;;;;;;0.00;0.00;;;;;22.28;50.08;100753.72;5348538;22;74139;-85
2022/06/25 06:17:13;;;;;;;;;0.00;0.00;;;;;22.28;49.81;100754.56;5092678;27;45517;-85
2022/06/25 06:19:38;;;;;;;;;2.00;0.00;;;;;22.44;49.54;100785.75;5096480;27;45395;-85
2022/06/25 06:22:04;;;;;;;;;0.67;0.67;;;;;22.43;49.62;100797.59;5093497;27;45486;-85
2022/06/25 06:28:12;;;;;;;;;0.00;0.00;;;;;22.12;49.16;100724.38;5268892;22;45450;-85
2022/06/25 06:54:17;;;;;;;;;2.00;0.33;;;;;22.06;48.73;100686.97;4967536;28;45660;-85
2022/06/25 07:03:38;;;;;;;;;0.00;0.00;;;;;22.81;47.51;100793.16;5697735;22;46309;-84
2022/06/25 07:16:24;;;;;;;;;0.25;0.25;;;;;22.42;47.74;100730.69;5007267;28;46574;-84
2022/06/25 07:18:50;;;;;;;;;0.00;0.00;;;;;21.98;48.24;100663.22;4990287;28;45408;-85
2022/06/25 07:21:26;;;;;;;;;0.00;0.00;;;;;22.20;49.08;100701.97;5009430;28;45434;-85
2022/06/25 07:23:52;;;;;;;;;0.00;0.00;;;;;22.26;48.83;100695.97;5003983;28;45568;-84
2022/06/25 07:26:19;;;;;;;;;0.00;0.00;;;;;22.50;47.88;100725.38;5008563;28;45566;-83
2022/06/25 07:36:21;;;;;;;;;0.00;0.00;;;;;23.11;46.92;100806.56;5011748;28;45656;-84
2022/06/25 07:38:47;;;;;;;;;0.00;0.00;;;;;22.35;46.40;100684.25;4936697;28;46495;-85
2022/06/25 07:41:12;;;;;;;;;0.25;0.25;;;;;22.01;46.65;100643.09;4924713;28;45732;-85
2022/06/25 07:43:38;;;;;;;;;0.67;0.33;;;;;22.53;46.47;100744.13;4937760;28;45506;-84
2022/06/25 07:46:05;;;;;;;;;0.00;0.00;;;;;22.71;46.16;100766.84;4937331;28;45567;-85
2022/06/25 07:53:51;;;;;;;;;0.00;0.00;;;;;23.14;46.67;100814.44;5084913;27;45535;-84
2022/06/25 07:56:16;;;;;;;;;1.00;1.00;;;;;22.96;47.15;100791.69;5096080;27;45424;-84
2022/06/25 07:58:42;;;;;;;;;0.00;0.00;;;;;23.17;46.64;100826.88;5099039;27;46251;-84
2022/06/25 08:01:07;;;;;;;;;0.00;0.00;;;;;23.17;46.60;100829.59;5092658;27;45493;-84
2022/06/25 08:03:32;;;;;;;;;0.00;0.00;;;;;23.10;46.57;100817.59;5094936;27;45525;-85
2022/06/25 08:05:58;;;;;;;;;0.75;0.00;;;;;22.81;46.52;100769.56;5094020;27;45518;-84
2022/06/25 08:08:30;;;;;;;;;0.00;0.00;;;;;23.05;45.60;100811.75;5090783;27;45747;-84
2022/06/25 08:10:56;;;;;;;;;0.00;0.00;;;;;23.07;45.30;100820.63;5093733;27;45655;-83
2022/06/25 08:13:22;;;;;;;;;0.00;0.00;;;;;22.49;44.32;100727.25;5088976;27;45403;-84
2022/06/25 08:15:59;;;;;;;;;1.00;0.00;;;;;22.09;44.66;100662.25;5071739;27;45534;-83
2022/06/25 08:26:39;;;;;;;;;0.00;0.00;;;;;23.05;45.14;100830.78;5993278;22;45375;-81
2022/06/25 08:29:04;;;;;;;;;0.00;0.00;;;;;23.06;44.53;100835.19;5095369;27;46959;-79
2022/06/25 08:31:30;;;;;;;;;0.00;0.00;;;;;23.00;45.00;100835.78;5356416;22;45499;-78
2022/06/25 08:33:55;;;;;;;;;0.00;0.00;;;;;23.11;45.12;100838.34;5094817;27;45359;-79
2022/06/25 08:36:22;;;;;;;;;0.00;0.00;;;;;23.10;45.42;100842.91;5093496;27;45398;-82
2022/06/25 08:38:47;;;;;;;;;0.00;0.00;;;;;23.12;45.15;100853.66;5092057;27;46835;-83
2022/06/25 08:41:13;;;;;;;;;0.00;0.00;;;;;22.83;45.77;100813.75;5085837;27;45437;-81
2022/06/25 08:43:50;;;;;;;;;0.67;0.33;;;;;22.22;45.78;100725.28;5095121;27;45492;-80
2022/06/25 08:46:16;;;;;;;;;0.00;0.00;;;;;22.74;45.81;100799.16;5096084;27;45462;-82
2022/06/25 08:48:42;;;;;;;;;3.00;0.50;;;;;22.64;46.39;100782.03;5089352;27;47011;-82
2022/06/25 08:51:08;;;;;;;;;0.00;0.00;;;;;22.96;46.08;100843.34;5088120;27;45674;-81
2022/06/25 08:53:37;;;;;;;;;0.33;0.00;;;;;22.82;46.46;100831.03;5093386;27;45528;-82
2022/06/25 08:56:03;;;;;;;;;2.00;0.67;;;;;22.95;47.04;100852.50;5090942;27;45377;-83
2022/06/25 08:58:32;;;;;;;;;1.00;1.00;;;;;22.92;47.27;100853.66;5088902;27;46368;-81
2022/06/25 09:00:57;;;;;;;;;1.67;0.33;;;;;22.58;47.62;100790.75;5092861;27;45568;-82
2022/06/25 09:03:43;;;;;;;;;0.67;0.67;;;;;22.95;47.85;100849.78;5091200;27;45555;-83
2022/06/25 09:06:17;;;;;;;;;0.00;0.00;;;;;22.92;49.66;100839.19;5091867;27;45643;-86
2022/06/25 09:08:44;;;;;;;;;0.00;0.00;;;;;23.06;50.02;100867.81;5077529;27;47922;-81
2022/06/25 09:11:09;;;;;;;;;0.00;0.00;;;;;22.99;49.21;100867.53;5094543;27;45604;-82
2022/06/25 09:13:37;;;;;;;;;0.00;0.00;;;;;22.95;50.29;100868.81;5096686;27;45874;-83
2022/06/25 09:16:03;;;;;;;;;0.00;0.00;;;;;22.61;49.29;100822.19;5096004;27;45488;-81
2022/06/25 09:18:32;;;;;;;;;1.00;1.00;;;;;22.38;49.23;100798.00;5089394;27;47379;-82
2022/06/25 09:21:08;;;;;;;;;1.00;1.00;;;;;22.54;49.58;100817.31;5095472;27;45553;-85
2022/06/25 09:23:38;;;;;;;;;0.67;0.67;;;;;22.90;49.10;100849.38;5078167;27;45549;-82
2022/06/25 09:26:08;;;;;;;;;1.00;1.00;;;;;22.94;48.38;100854.38;5086289;27;45652;-79
2022/06/25 09:28:36;;;;;;;;;2.00;1.33;;;;;22.42;49.14;100742.41;5090042;27;46587;-84
2022/06/25 09:31:02;;;;;;;;;1.00;0.00;;;;;23.16;48.56;100838.75;5083692;27;45457;-80
2022/06/25 09:33:30;;;;;;;;;0.67;0.67;;;;;22.78;47.74;100767.13;5089543;27;45550;-83
2022/06/25 09:35:56;;;;;;;;;0.33;0.33;;;;;23.28;47.61;100836.72;5093764;27;45628;-86
2022/06/25 09:38:22;;;;;;;;;0.33;0.00;;;;;23.26;47.00;100820.56;5091138;27;46233;-82
2022/06/25 09:40:59;;;;;;;;;1.00;1.00;;;;;23.13;47.20;100799.13;5089175;27;45552;-81
2022/06/25 09:43:32;;;;;;;;;0.00;0.00;;;;;23.26;47.60;100811.53;5091809;27;45452;-87
2022/06/25 09:46:04;;;;;;;;;1.00;1.00;;;;;23.39;47.29;100825.69;5092551;27;45780;-90
2022/06/25 09:48:33;;;;;;;;;0.00;0.00;;;;;23.48;47.48;100832.06;5091669;27;45688;-91
2022/06/25 09:51:26;;;;;;;;;0.67;0.67;;;;;23.48;46.76;100837.50;5090956;27;45560;-91
2022/06/25 09:54:01;;;;;;;;;2.00;0.00;;;;;23.47;47.02;100831.22;5089575;27;45569;-88
2022/06/25 09:56:29;;;;;;;;;0.33;0.33;;;;;23.49;46.47;100829.22;5093896;27;46832;-83
2022/06/25 09:58:55;;;;;;;;;0.67;0.67;;;;;23.52;46.68;100839.78;5090163;27;46490;-91
2022/06/25 10:01:23;;;;;;;;;1.00;0.00;;;;;23.35;46.66;100807.94;5080004;27;45808;-85
2022/06/25 10:03:49;;;;;;;;;1.00;1.00;;;;;23.28;47.01;100791.34;5069179;27;45406;-86
2022/06/25 10:06:24;;;;;;;;;1.00;1.00;;;;;23.59;46.43;100838.19;5091178;27;45628;-85
2022/06/25 10:08:52;;;;;;;;;1.00;1.00;;;;;23.52;46.12;100828.06;5084055;27;46643;-80
2022/06/25 10:11:20;;;;;;;;;61.67;48.00;;;;;23.57;45.90;100837.47;5090541;27;45478;-81
2022/06/25 10:13:50;;;;;;;;;2.00;2.00;;;;;23.57;46.02;100842.06;5086801;27;45320;-80
2022/06/25 10:16:20;;;;;;;;;0.00;0.00;;;;;23.01;46.11;100767.66;5093058;27;45484;-81
2022/06/25 10:18:48;;;;;;;;;2.00;0.00;;;;;23.21;45.84;100778.50;5092274;27;46410;-82
2022/06/25 10:21:13;;;;;;;;;1.00;1.00;;;;;23.55;45.67;100847.69;5084580;27;45453;-80
2022/06/25 10:23:43;;;;;;;;;0.33;0.33;;;;;23.56;46.42;100838.50;5090478;27;45534;-82
2022/06/25 10:26:10;;;;;;;;;0.00;0.00;;;;;23.57;47.01;100826.59;5068196;27;45439;-82
2022/06/25 10:28:35;;;;;;;;;0.00;0.00;;;;;23.29;47.91;100786.75;5090104;27;47395;-79
2022/06/25 10:31:06;;;;;;;;;2.00;2.00;;;;;23.68;47.38;100825.56;5084546;27;45421;-81
2022/06/25 10:33:50;;;;;;;;;2.00;2.00;;;;;23.65;46.63;100804.09;5090283;27;45517;-86
2022/06/25 10:36:15;;;;;;;;;0.67;0.67;;;;;23.75;47.13;100791.31;5093975;27;45488;-87
2022/06/25 10:38:41;;;;;;;;;0.33;0.33;;;;;24.05;46.59;100819.22;5094297;27;46663;-89
2022/06/25 10:44:03;;;;;;;;;0.00;0.00;;;;;23.79;45.08;100754.63;5091857;27;45446;-85
2022/06/25 10:46:38;;;;;;;;;0.33;0.33;;;;;24.19;44.47;100818.69;5095774;27;45528;-88
2022/06/25 10:49:08;;;;;;;;;1.00;1.00;;;;;23.98;44.43;100799.91;5072402;27;47704;-86
2022/06/25 10:51:50;;;;;;;;;1.00;1.00;;;;;24.18;44.26;100829.75;5094074;27;45932;-84
2022/06/25 10:54:24;;;;;;;;;1.00;1.00;;;;;24.19;43.72;100837.78;5093994;27;45444;-85
2022/06/25 10:56:52;;;;;;;;;2.00;1.00;;;;;24.16;43.46;100835.38;5093101;27;45485;-84
2022/06/25 10:59:41;;;;;;;;;1.33;1.33;;;;;24.14;43.62;100828.31;5091282;27;46264;-83
2022/06/25 11:02:08;;;;;;;;;1.00;1.00;;;;;24.01;43.66;100801.47;5092627;27;45532;-82
2022/06/25 11:04:47;;;;;;;;;1.00;1.00;;;;;23.36;43.83;100684.50;5093890;27;45883;-86
2022/06/25 11:07:16;;;;;;;;;2.00;2.00;;;;;23.57;43.98;100711.44;5093248;27;45382;-89
2022/06/25 11:09:53;;;;;;;;;1.00;1.00;;;;;24.14;43.87;100804.69;5091728;27;45883;-89
2022/06/25 11:12:19;;;;;;;;;2.33;2.33;;;;;24.15;44.10;100795.50;5092705;27;45533;-89
2022/06/25 11:15:14;;;;;;;;;2.00;2.00;;;;;24.32;43.91;100822.91;5097869;22;45799;-86
2022/06/25 11:17:43;;;;;;;;;1.67;1.67;;;;;23.96;44.34;100773.84;5075950;27;45323;-83
2022/06/25 11:20:10;;;;;;;;;0.67;0.67;;;;;24.30;44.12;100827.66;5077359;27;46246;-81
2022/06/25 11:22:50;;;;;;;;;1.67;1.67;;;;;24.25;45.36;100835.44;5078417;27;45408;-81
2022/06/25 11:30:46;;;;;;;;;1.00;1.00;;;;;24.14;43.86;100851.00;5073077;27;45692;-84
2022/06/25 11:33:11;;;;;;;;;2.00;0.00;;;;;23.92;44.57;100821.44;5075060;28;45499;-82
2022/06/25 11:35:39;;;;;;;;;2.00;2.00;;;;;23.91;45.26;100822.47;5071393;27;45988;-84
2022/06/25 11:38:15;;;;;;;;;2.67;0.00;;;;;23.78;45.41;100815.50;5070784;27;45366;-78
2022/06/25 11:40:41;;;;;;;;;0.00;0.00;;;;;23.95;45.17;100842.91;5069402;27;47230;-81
2022/06/25 11:43:07;;;;;;;;;2.00;0.33;;;;;23.66;45.37;100797.63;5069207;27;45539;-80
2022/06/25 11:45:33;;;;;;;;;1.00;1.00;;;;;23.87;45.60;100840.09;5073216;27;45566;-80
2022/06/25 11:47:58;;;;;;;;;2.00;2.00;;;;;23.46;46.25;100782.38;5070992;28;45582;-80
2022/06/25 11:50:23;;;;;;;;;1.67;1.00;;;;;23.62;46.46;100828.00;5076009;27;45591;-82
2022/06/25 11:52:49;;;;;;;;;4.00;1.00;;;;;23.67;48.52;100842.03;5076790;27;46167;-81
2022/06/25 11:55:14;;;;;;;;;1.75;1.75;;;;;23.67;49.33;100842.03;5072436;27;45416;-79
2022/06/25 11:57:43;;;;;;;;;0.00;0.00;;;;;23.62;49.57;100842.47;5069377;27;45457;-80
2022/06/25 12:00:13;;;;;;;;;1.00;1.00;;;;;23.45;51.66;100821.50;5062990;28;48088;-81
2022/06/25 12:02:42;;;;;;;;;0.33;0.33;;;;;23.56;50.68;100854.81;5074297;27;45567;-80
2022/06/25 12:05:09;;;;;;;;;1.67;1.00;;;;;23.41;50.71;100836.41;5074803;27;45459;-81
2022/06/25 12:07:34;;;;;;;;;2.00;1.67;;;;;23.28;50.97;100828.56;5076507;27;46931;-81
2022/06/25 12:10:08;;;;;;;;;0.00;0.00;;;;;23.08;50.05;100798.69;5075721;27;46093;-84
2022/06/25 12:12:36;;;;;;;;;2.00;2.00;;;;;23.37;53.13;100852.16;5073797;27;45408;-82
2022/06/25 12:15:02;;;;;;;;;3.00;2.00;;;;;23.37;54.69;100838.56;5074126;28;45418;-83
2022/06/25 12:17:35;;;;;;;;;4.00;2.00;;;;;22.73;55.11;100736.78;5066326;27;45602;-83
2022/06/25 12:20:06;;;;;;;;;1.33;1.00;;;;;23.28;51.63;100843.03;5075644;27;45481;-83
2022/06/25 12:22:31;;;;;;;;;1.33;0.67;;;;;23.07;52.58;100816.03;5081119;27;45431;-83
2022/06/25 12:25:00;;;;;;;;;1.00;1.00;;;;;23.25;54.83;100831.56;5074381;27;45472;-83
2022/06/25 12:27:26;;;;;;;;;1.00;1.00;;;;;23.32;54.54;100838.13;5077835;27;45552;-83
2022/06/25 12:29:56;;;;;;;;;2.33;1.00;;;;;23.32;54.89;100827.25;5077026;27;46389;-85
2022/06/25 12:32:42;;;;;;;;;3.00;1.00;;;;;23.10;55.79;100799.41;5075763;27;45459;-85
2022/06/25 12:35:21;;;;;;;;;6.00;4.33;;;;;23.08;54.87;100785.09;5072906;28;45562;-85
2022/06/25 12:38:03;;;;;;;;;2.33;2.33;;;;;23.28;54.62;100843.03;5076657;27;45435;-85
2022/06/25 12:40:39;;;;;;;;;2.67;1.00;;;;;23.20;55.10;100829.28;5076165;27;47113;-84
2022/06/25 12:43:09;;;;;;;;;7.00;7.00;;;;;23.08;54.27;100822.31;5072677;27;45525;-82
2022/06/25 12:45:36;;;;;;;;;0.00;0.00;;;;;23.22;54.78;100843.59;5074394;27;45514;-83
2022/06/25 12:48:03;;;;;;;;;0.00;0.00;;;;;23.14;55.36;100827.19;5074199;28;45733;-80
2022/06/25 12:50:31;;;;;;;;;0.00;0.00;;;;;23.16;53.62;100836.03;5075527;28;48292;-82
2022/06/25 12:53:14;;;;;;;;;0.33;0.33;;;;;23.06;54.76;100833.34;5075689;27;45661;-82
2022/06/25 12:55:44;;;;;;;;;1.00;1.00;;;;;23.11;55.19;100844.66;5072172;27;45399;-82
2022/06/25 12:58:14;;;;;;;;;1.33;1.00;;;;;22.88;54.44;100807.88;5075034;27;45462;-82
2022/06/25 13:00:43;;;;;;;;;0.50;0.50;;;;;23.11;53.98;100843.78;5073208;27;45603;-82
2022/06/25 13:03:09;;;;;;;;;0.00;0.00;;;;;23.10;54.29;100847.50;5075278;28;45400;-82
2022/06/25 13:05:34;;;;;;;;;1.00;1.00;;;;;22.88;53.58;100816.88;5073284;27;45489;-83
2022/06/25 13:08:01;;;;;;;;;0.00;0.00;;;;;22.93;52.63;100825.47;5075917;28;45508;-83
2022/06/25 13:10:27;;;;;;;;;0.00;0.00;;;;;22.87;52.49;100823.31;5076199;27;47455;-82
2022/06/25 13:12:53;;;;;;;;;0.33;0.33;;;;;22.80;52.12;100810.44;5072781;27;45555;-82
2022/06/25 13:15:19;;;;;;;;;2.33;0.00;;;;;22.60;52.15;100771.59;5075505;28;45383;-82
2022/06/25 13:17:45;;;;;;;;;0.00;0.00;;;;;22.59;53.15;100778.00;5075521;27;45463;-83
2022/06/25 13:20:14;;;;;;;;;0.67;0.67;;;;;22.81;53.03;100790.44;5075201;27;45573;-83
2022/06/25 13:22:40;;;;;;;;;2.00;1.00;;;;;22.91;51.93;100796.72;5075713;27;45453;-84
2022/06/25 13:25:15;;;;;;;;;1.00;1.00;;;;;22.83;51.10;100785.69;5074419;27;45679;-84
2022/06/25 13:27:42;;;;;;;;;0.33;0.33;;;;;22.81;51.12;100785.00;5075700;27;45633;-84
2022/06/25 13:30:10;;;;;;;;;1.00;1.00;;;;;22.35;51.04;100703.25;5072469;27;46214;-80
2022/06/25 13:32:36;;;;;;;;;1.00;1.00;;;;;22.43;50.97;100730.56;5073879;28;45632;-81
2022/06/25 13:35:03;;;;;;;;;0.67;0.67;;;;;22.42;50.08;100723.41;5074999;28;45450;-81
2022/06/25 13:37:29;;;;;;;;;0.67;0.67;;;;;22.71;52.33;100780.44;5075095;27;45502;-82
2022/06/25 13:39:55;;;;;;;;;2.00;2.00;;;;;22.94;51.44;100818.16;5074345;27;45639;-81
2022/06/25 13:42:20;;;;;;;;;0.67;0.67;;;;;22.81;51.98;100801.31;5072410;28;45563;-82